Addison, Maine
Current Conditions -  °F | °C
As of 5:55 PM on Wednesday 26 Nov 2014 (Local Time) from KBHB Reporting Station
Overcast Overcast  
Wind Chill: 26°   Ceiling: 400
Heat Index: 34°   Visibility: 0.75mi
Dew Point: 34°   Wind: 10mph
Humidity: 100%   Direction: 40°NE
Pressure: 30.03"   Gusts: NA
Location:  44.62°N, 67.74°W
Report Text: KBHB 262255Z AUTO 04009KT 3/4SM OVC004 01/01 A3003 RMK AO1 P0006
Loading
Personal Weather Stations






























Interactive Weather Map New forecast layout! Learn more

10-Day Weather Forecast

Advertisements
Track Severe Weather on mobile